Bookmark and Share
Track history (hours):
 

MSC Vanessa

Last reported at 2014-Apr-17 08:22 UTC. Time now 2014-Apr-24 14:03 UTC.
Position S 12°55' W 038°05'.

Length 300 m; draft 12.8 m.

Type: Ship (hazmat cat A). MMSI: 356946000.

NotesDate/timePositionNaut miles runAvg speedWind from/ knotsBaromVisibWave heightAir tempDewpointWater temp
2014-Apr-17 08:22S 12°55' W 038°05'1619.2
2014-Apr-17 07:33S 13°04' W 038°18'1615.5
2014-Apr-17 06:33S 13°05' W 038°34'9 8.7
2014-Apr-17 05:34S 12°57' W 038°31'1 0.9
2014-Apr-17 04:31S 12°57' W 038°30'0 0.0
2014-Apr-17 03:31S 12°57' W 038°30'0 0.0
2014-Apr-17 02:31S 12°57' W 038°30'0 0.0
2014-Apr-17 01:31S 12°57' W 038°30'0 0.0
2014-Apr-17 00:31S 12°57' W 038°30'0 0.0
2014-Apr-16 23:31S 12°57' W 038°30'0 0.0
2014-Apr-16 22:31S 12°57' W 038°30'0 0.0
2014-Apr-16 21:31S 12°57' W 038°30'0 0.0
2014-Apr-16 20:31S 12°57' W 038°30'0 0.0
2014-Apr-16 19:31S 12°57' W 038°30'0 0.0
2014-Apr-16 18:22S 12°57' W 038°30'0 0.0
2014-Apr-16 17:28S 12°57' W 038°30'0 0.0
2014-Apr-16 16:31S 12°57' W 038°30'0 0.0
2014-Apr-16 15:33S 12°57' W 038°30'0 0.0
2014-Apr-16 14:33S 12°57' W 038°30'0 0.0
2014-Apr-16 13:33S 12°57' W 038°30'0 0.0
2014-Apr-16 12:31S 12°57' W 038°30'1 1.1
2014-Apr-16 11:33S 12°57' W 038°31'7 7.2
2014-Apr-16 10:33S 13°04' W 038°34'1211.5
2014-Apr-16 09:33S 13°15' W 038°34'  
2014-Apr-13 02:31S 24°13' W 045°60'1616.5
2014-Apr-13 01:33S 24°11' W 046°17'1111.3
2014-Apr-13 00:34S 24°00' W 046°20'3 3.3
2014-Apr-12 23:33S 23°58' W 046°18'0 0.0
2014-Apr-12 22:33S 23°58' W 046°18'0 0.0
2014-Apr-12 21:27S 23°58' W 046°18'0 0.0
2014-Apr-12 20:33S 23°58' W 046°18'0 0.0
2014-Apr-12 19:33S 23°58' W 046°18'0 0.0
2014-Apr-12 18:33S 23°58' W 046°18'0 0.0
2014-Apr-12 17:33S 23°58' W 046°18'0 0.0
2014-Apr-12 16:33S 23°58' W 046°18'0 0.0
2014-Apr-12 15:33S 23°58' W 046°18'0 0.0
2014-Apr-12 14:33S 23°58' W 046°18'0 0.0
2014-Apr-12 13:33S 23°58' W 046°18'0 0.0
2014-Apr-12 12:30S 23°58' W 046°18'0 0.0
2014-Apr-12 11:33S 23°58' W 046°18'0 0.0
2014-Apr-12 10:33S 23°58' W 046°18'0 0.0
2014-Apr-12 09:33S 23°58' W 046°18'0 0.0
2014-Apr-12 08:33S 23°58' W 046°18'0 0.0
2014-Apr-12 07:18S 23°58' W 046°18'0 0.0
2014-Apr-12 06:33S 23°58' W 046°18'0 0.0
2014-Apr-12 05:33S 23°58' W 046°18'0 0.0
2014-Apr-12 04:33S 23°58' W 046°18'0 0.0
2014-Apr-12 03:33S 23°58' W 046°18'0 0.0
2014-Apr-12 02:33S 23°58' W 046°18'0 0.0
2014-Apr-12 01:33S 23°58' W 046°18'0 0.0
2014-Apr-12 00:33S 23°58' W 046°18'0 0.0
2014-Apr-11 23:27S 23°58' W 046°18'0 0.4
2014-Apr-11 22:33S 23°58' W 046°18'9 8.9
2014-Apr-11 21:33S 24°06' W 046°22'2 0.1
2014-Apr-11 03:13S 24°07' W 046°20'1 0.9
2014-Apr-11 02:33S 24°07' W 046°21'205 5.4
2014-Apr-09 12:32S 26°55' W 048°31'6 6.1
2014-Apr-09 11:31S 27°00' W 048°26'8 7.8
2014-Apr-09 10:29S 27°06' W 048°20'17 9.0
2014-Apr-09 08:33S 27°21' W 048°11'1514.6
2014-Apr-09 07:33S 27°36' W 048°13'8 8.1
2014-Apr-09 06:33S 27°44' W 048°15'1413.8
2014-Apr-09 05:32S 27°58' W 048°16'  

Dump ship's entire track history

sailing weather and tide predictions

MSC Vanessa — HOWD — position and weather